sensor_id;sensor_type;location;lat;lon;timestamp;P1;durP1;ratioP1;P2;durP2;ratioP2
9280;SDS011;4679;47.966;7.958;2022-12-07T06:50:05;7.27;;;4.13;;
9280;SDS011;4679;47.966;7.958;2022-12-07T06:52:08;5.30;;;4.07;;
9280;SDS011;4679;47.966;7.958;2022-12-07T06:54:10;5.30;;;4.00;;
9280;SDS011;4679;47.966;7.958;2022-12-07T06:56:12;5.43;;;3.63;;
9280;SDS011;4679;47.966;7.958;2022-12-07T06:58:14;4.33;;;3.70;;
9280;SDS011;4679;47.966;7.958;2022-12-07T07:00:16;4.23;;;3.77;;
9280;SDS011;4679;47.966;7.958;2022-12-07T07:02:27;2.73;;;2.20;;
9280;SDS011;4679;47.966;7.958;2022-12-07T07:04:29;2.23;;;1.80;;
9280;SDS011;4679;47.966;7.958;2022-12-07T07:06:32;2.50;;;2.30;;
9280;SDS011;4679;47.966;7.958;2022-12-07T07:08:34;3.03;;;2.30;;
9280;SDS011;4679;47.966;7.958;2022-12-07T07:10:36;2.87;;;1.87;;
9280;SDS011;4679;47.966;7.958;2022-12-07T07:12:38;3.67;;;2.20;;
9280;SDS011;4679;47.966;7.958;2022-12-07T07:14:40;3.43;;;2.73;;
9280;SDS011;4679;47.966;7.958;2022-12-07T07:16:42;5.53;;;3.50;;
9280;SDS011;4679;47.966;7.958;2022-12-07T07:18:43;4.47;;;2.80;;
9280;SDS011;4679;47.966;7.958;2022-12-07T07:20:45;5.00;;;3.50;;
9280;SDS011;4679;47.966;7.958;2022-12-07T07:22:48;5.00;;;2.90;;
9280;SDS011;4679;47.966;7.958;2022-12-07T07:24:50;4.97;;;3.10;;
9280;SDS011;4679;47.966;7.958;2022-12-07T07:26:52;9.53;;;5.93;;
9280;SDS011;4679;47.966;7.958;2022-12-07T07:28:53;11.10;;;6.17;;
9280;SDS011;4679;47.966;7.958;2022-12-07T07:30:55;11.63;;;5.67;;
9280;SDS011;4679;47.966;7.958;2022-12-07T07:32:57;12.90;;;6.87;;
9280;SDS011;4679;47.966;7.958;2022-12-07T07:34:59;7.30;;;4.97;;
9280;SDS011;4679;47.966;7.958;2022-12-07T07:37:00;12.33;;;5.83;;
9280;SDS011;4679;47.966;7.958;2022-12-07T07:39:03;6.33;;;4.60;;
9280;SDS011;4679;47.966;7.958;2022-12-07T07:41:05;8.03;;;5.53;;
9280;SDS011;4679;47.966;7.958;2022-12-07T07:43:07;7.30;;;5.03;;
9280;SDS011;4679;47.966;7.958;2022-12-07T07:45:09;7.83;;;6.10;;
9280;SDS011;4679;47.966;7.958;2022-12-07T07:47:11;7.60;;;4.67;;
9280;SDS011;4679;47.966;7.958;2022-12-07T07:49:13;6.43;;;4.23;;
9280;SDS011;4679;47.966;7.958;2022-12-07T07:51:15;4.87;;;4.17;;
9280;SDS011;4679;47.966;7.958;2022-12-07T07:53:17;4.00;;;3.03;;
9280;SDS011;4679;47.966;7.958;2022-12-07T07:55:20;4.90;;;3.80;;
9280;SDS011;4679;47.966;7.958;2022-12-07T07:57:22;4.17;;;3.23;;
9280;SDS011;4679;47.966;7.958;2022-12-07T07:59:23;8.37;;;4.20;;
9280;SDS011;4679;47.966;7.958;2022-12-07T08:01:25;4.60;;;3.80;;
9280;SDS011;4679;47.966;7.958;2022-12-07T08:03:27;5.63;;;3.77;;
9280;SDS011;4679;47.966;7.958;2022-12-07T08:05:29;5.87;;;4.10;;
9280;SDS011;4679;47.966;7.958;2022-12-07T08:07:30;6.67;;;4.70;;
9280;SDS011;4679;47.966;7.958;2022-12-07T08:09:32;6.77;;;4.37;;
9280;SDS011;4679;47.966;7.958;2022-12-07T08:11:35;11.10;;;7.33;;
9280;SDS011;4679;47.966;7.958;2022-12-07T08:13:37;10.90;;;5.40;;
9280;SDS011;4679;47.966;7.958;2022-12-07T08:15:39;8.23;;;5.77;;
9280;SDS011;4679;47.966;7.958;2022-12-07T08:17:42;6.77;;;5.00;;
9280;SDS011;4679;47.966;7.958;2022-12-07T08:19:44;7.60;;;5.10;;
9280;SDS011;4679;47.966;7.958;2022-12-07T08:21:45;6.07;;;5.17;;
9280;SDS011;4679;47.966;7.958;2022-12-07T08:23:48;6.10;;;4.23;;
9280;SDS011;4679;47.966;7.958;2022-12-07T08:25:49;5.10;;;4.60;;
9280;SDS011;4679;47.966;7.958;2022-12-07T08:27:52;7.97;;;5.10;;
9280;SDS011;4679;47.966;7.958;2022-12-07T08:29:54;8.73;;;5.10;;
9280;SDS011;4679;47.966;7.958;2022-12-07T08:31:56;5.90;;;4.80;;
9280;SDS011;4679;47.966;7.958;2022-12-07T08:33:58;5.43;;;4.90;;
9280;SDS011;4679;47.966;7.958;2022-12-07T08:36:00;4.57;;;4.07;;
9280;SDS011;4679;47.966;7.958;2022-12-07T08:38:02;5.10;;;4.10;;
9280;SDS011;4679;47.966;7.958;2022-12-07T08:40:04;6.57;;;4.43;;
9280;SDS011;4679;47.966;7.958;2022-12-07T08:42:07;3.87;;;3.10;;
9280;SDS011;4679;47.966;7.958;2022-12-07T08:44:10;3.97;;;2.43;;
9280;SDS011;4679;47.966;7.958;2022-12-07T08:46:13;4.60;;;2.90;;
9280;SDS011;4679;47.966;7.958;2022-12-07T08:48:19;4.00;;;2.97;;
9280;SDS011;4679;47.966;7.958;2022-12-07T08:50:24;3.63;;;2.60;;
9280;SDS011;4679;47.966;7.958;2022-12-07T08:52:26;4.93;;;3.33;;
9280;SDS011;4679;47.966;7.958;2022-12-07T08:54:28;4.87;;;3.57;;
9280;SDS011;4679;47.966;7.958;2022-12-07T08:56:30;4.00;;;3.10;;
9280;SDS011;4679;47.966;7.958;2022-12-07T08:58:32;3.10;;;2.47;;
9280;SDS011;4679;47.966;7.958;2022-12-07T09:00:36;3.10;;;2.70;;
9280;SDS011;4679;47.966;7.958;2022-12-07T09:02:38;2.60;;;2.40;;
9280;SDS011;4679;47.966;7.958;2022-12-07T09:04:40;2.80;;;2.50;;
9280;SDS011;4679;47.966;7.958;2022-12-07T09:06:42;11.60;;;7.13;;
9280;SDS011;4679;47.966;7.958;2022-12-07T09:08:45;15.00;;;10.20;;
9280;SDS011;4679;47.966;7.958;2022-12-07T09:10:51;6.23;;;3.80;;
9280;SDS011;4679;47.966;7.958;2022-12-07T09:12:53;2.90;;;2.37;;
9280;SDS011;4679;47.966;7.958;2022-12-07T09:14:55;3.83;;;2.90;;
9280;SDS011;4679;47.966;7.958;2022-12-07T09:17:05;2.77;;;2.50;;
9280;SDS011;4679;47.966;7.958;2022-12-07T09:19:08;2.60;;;2.37;;
9280;SDS011;4679;47.966;7.958;2022-12-07T09:21:10;4.90;;;2.67;;
9280;SDS011;4679;47.966;7.958;2022-12-07T09:23:11;2.73;;;2.10;;
9280;SDS011;4679;47.966;7.958;2022-12-07T09:25:13;3.53;;;2.43;;
9280;SDS011;4679;47.966;7.958;2022-12-07T09:27:15;2.87;;;2.10;;
9280;SDS011;4679;47.966;7.958;2022-12-07T09:29:17;4.83;;;1.80;;
9280;SDS011;4679;47.966;7.958;2022-12-07T09:31:19;2.53;;;2.03;;
9280;SDS011;4679;47.966;7.958;2022-12-07T09:33:22;3.17;;;2.00;;
9280;SDS011;4679;47.966;7.958;2022-12-07T09:35:24;3.13;;;1.63;;
9280;SDS011;4679;47.966;7.958;2022-12-07T09:37:26;1.93;;;1.60;;
9280;SDS011;4679;47.966;7.958;2022-12-07T09:39:28;2.07;;;1.60;;
9280;SDS011;4679;47.966;7.958;2022-12-07T09:41:30;1.67;;;1.57;;
9280;SDS011;4679;47.966;7.958;2022-12-07T09:43:32;1.83;;;1.53;;
9280;SDS011;4679;47.966;7.958;2022-12-07T09:45:37;1.43;;;1.33;;
9280;SDS011;4679;47.966;7.958;2022-12-07T09:47:39;3.07;;;1.47;;
9280;SDS011;4679;47.966;7.958;2022-12-07T09:49:42;1.60;;;1.50;;
9280;SDS011;4679;47.966;7.958;2022-12-07T09:51:44;1.60;;;1.50;;
9280;SDS011;4679;47.966;7.958;2022-12-07T09:53:47;1.40;;;1.30;;
9280;SDS011;4679;47.966;7.958;2022-12-07T09:55:49;1.53;;;1.43;;
9280;SDS011;4679;47.966;7.958;2022-12-07T09:57:51;1.40;;;1.20;;
9280;SDS011;4679;47.966;7.958;2022-12-07T09:59:54;1.30;;;1.20;;
9280;SDS011;4679;47.966;7.958;2022-12-07T10:02:04;1.20;;;1.10;;
9280;SDS011;4679;47.966;7.958;2022-12-07T10:04:24;1.20;;;0.90;;
9280;SDS011;4679;47.966;7.958;2022-12-07T10:06:29;1.70;;;1.37;;
9280;SDS011;4679;47.966;7.958;2022-12-07T10:08:30;1.50;;;1.30;;
9280;SDS011;4679;47.966;7.958;2022-12-07T10:10:33;1.30;;;1.20;;
9280;SDS011;4679;47.966;7.958;2022-12-07T10:12:45;1.10;;;1.00;;
9280;SDS011;4679;47.966;7.958;2022-12-07T10:14:55;1.30;;;0.97;;
9280;SDS011;4679;47.966;7.958;2022-12-07T10:17:02;1.03;;;0.93;;
9280;SDS011;4679;47.966;7.958;2022-12-07T10:19:20;1.37;;;0.90;;
9280;SDS011;4679;47.966;7.958;2022-12-07T10:21:26;1.10;;;0.90;;
9280;SDS011;4679;47.966;7.958;2022-12-07T10:23:30;1.10;;;1.00;;
9280;SDS011;4679;47.966;7.958;2022-12-07T10:25:32;1.00;;;0.90;;
9280;SDS011;4679;47.966;7.958;2022-12-07T10:27:35;1.37;;;1.23;;
9280;SDS011;4679;47.966;7.958;2022-12-07T10:29:37;0.90;;;0.90;;
9280;SDS011;4679;47.966;7.958;2022-12-07T10:31:40;1.40;;;1.00;;
9280;SDS011;4679;47.966;7.958;2022-12-07T10:33:48;1.13;;;1.03;;
9280;SDS011;4679;47.966;7.958;2022-12-07T10:35:51;2.23;;;1.20;;
9280;SDS011;4679;47.966;7.958;2022-12-07T10:37:54;1.40;;;1.10;;
9280;SDS011;4679;47.966;7.958;2022-12-07T10:39:59;1.50;;;1.40;;
9280;SDS011;4679;47.966;7.958;2022-12-07T10:42:01;1.20;;;1.10;;
9280;SDS011;4679;47.966;7.958;2022-12-07T10:44:07;1.20;;;1.10;;
9280;SDS011;4679;47.966;7.958;2022-12-07T10:46:26;0.90;;;0.83;;
9280;SDS011;4679;47.966;7.958;2022-12-07T10:48:41;1.23;;;0.90;;
9280;SDS011;4679;47.966;7.958;2022-12-07T10:50:59;1.10;;;1.00;;
9280;SDS011;4679;47.966;7.958;2022-12-07T10:53:20;1.17;;;1.07;;
9280;SDS011;4679;47.966;7.958;2022-12-07T10:55:35;1.40;;;0.90;;
9280;SDS011;4679;47.966;7.958;2022-12-07T10:57:56;1.07;;;1.00;;
9280;SDS011;4679;47.966;7.958;2022-12-07T11:00:12;0.97;;;0.90;;
9280;SDS011;4679;47.966;7.958;2022-12-07T11:02:22;1.00;;;1.00;;
9280;SDS011;4679;47.966;7.958;2022-12-07T11:04:33;1.87;;;0.80;;
9280;SDS011;4679;47.966;7.958;2022-12-07T11:06:43;1.10;;;1.00;;
9280;SDS011;4679;47.966;7.958;2022-12-07T11:09:02;1.10;;;0.83;;
9280;SDS011;4679;47.966;7.958;2022-12-07T11:11:19;2.10;;;0.97;;
9280;SDS011;4679;47.966;7.958;2022-12-07T11:13:29;0.77;;;0.77;;
9280;SDS011;4679;47.966;7.958;2022-12-07T11:15:40;1.40;;;0.87;;
9280;SDS011;4679;47.966;7.958;2022-12-07T11:17:54;2.00;;;0.80;;
9280;SDS011;4679;47.966;7.958;2022-12-07T11:20:05;1.97;;;1.20;;
9280;SDS011;4679;47.966;7.958;2022-12-07T11:22:36;1.10;;;1.00;;
9280;SDS011;4679;47.966;7.958;2022-12-07T11:24:52;1.17;;;1.07;;
9280;SDS011;4679;47.966;7.958;2022-12-07T11:27:07;1.20;;;1.10;;
9280;SDS011;4679;47.966;7.958;2022-12-07T11:29:21;1.10;;;1.00;;
9280;SDS011;4679;47.966;7.958;2022-12-07T11:31:35;1.30;;;1.20;;
9280;SDS011;4679;47.966;7.958;2022-12-07T11:33:41;1.40;;;1.30;;
9280;SDS011;4679;47.966;7.958;2022-12-07T11:35:51;1.10;;;1.00;;
9280;SDS011;4679;47.966;7.958;2022-12-07T11:38:00;1.50;;;1.13;;
9280;SDS011;4679;47.966;7.958;2022-12-07T11:40:13;1.00;;;1.00;;
9280;SDS011;4679;47.966;7.958;2022-12-07T11:42:20;1.40;;;1.27;;
9280;SDS011;4679;47.966;7.958;2022-12-07T11:44:26;1.10;;;1.00;;
9280;SDS011;4679;47.966;7.958;2022-12-07T11:46:40;1.53;;;1.27;;
9280;SDS011;4679;47.966;7.958;2022-12-07T11:48:49;1.60;;;1.10;;
9280;SDS011;4679;47.966;7.958;2022-12-07T11:50:56;1.40;;;1.10;;
9280;SDS011;4679;47.966;7.958;2022-12-07T11:53:02;1.10;;;1.00;;
9280;SDS011;4679;47.966;7.958;2022-12-07T11:55:14;1.10;;;1.00;;
9280;SDS011;4679;47.966;7.958;2022-12-07T11:57:24;1.47;;;1.37;;
9280;SDS011;4679;47.966;7.958;2022-12-07T11:59:30;1.10;;;1.00;;
9280;SDS011;4679;47.966;7.958;2022-12-07T12:01:43;1.10;;;0.97;;
9280;SDS011;4679;47.966;7.958;2022-12-07T12:03:56;1.20;;;1.10;;
9280;SDS011;4679;47.966;7.958;2022-12-07T12:06:03;1.10;;;1.00;;
9280;SDS011;4679;47.966;7.958;2022-12-07T12:08:11;1.10;;;1.00;;
9280;SDS011;4679;47.966;7.958;2022-12-07T12:10:18;0.83;;;0.83;;
9280;SDS011;4679;47.966;7.958;2022-12-07T12:15:05;0.93;;;0.90;;
9280;SDS011;4679;47.966;7.958;2022-12-07T12:17:34;0.97;;;0.90;;
9280;SDS011;4679;47.966;7.958;2022-12-07T12:20:01;2.70;;;1.20;;
9280;SDS011;4679;47.966;7.958;2022-12-07T12:22:10;1.30;;;1.20;;
9280;SDS011;4679;47.966;7.958;2022-12-07T12:24:19;2.83;;;1.00;;
9280;SDS011;4679;47.966;7.958;2022-12-07T12:26:25;1.50;;;1.40;;
9280;SDS011;4679;47.966;7.958;2022-12-07T12:28:31;2.30;;;1.20;;
9280;SDS011;4679;47.966;7.958;2022-12-07T12:30:39;1.47;;;1.10;;
9280;SDS011;4679;47.966;7.958;2022-12-07T12:32:42;0.90;;;0.90;;
9280;SDS011;4679;47.966;7.958;2022-12-07T12:35:00;1.03;;;0.93;;
9280;SDS011;4679;47.966;7.958;2022-12-07T12:37:12;1.17;;;0.90;;
9280;SDS011;4679;47.966;7.958;2022-12-07T12:39:43;1.00;;;0.80;;
9280;SDS011;4679;47.966;7.958;2022-12-07T12:42:42;1.40;;;0.83;;
9280;SDS011;4679;47.966;7.958;2022-12-07T12:47:37;0.77;;;0.77;;
9280;SDS011;4679;47.966;7.958;2022-12-07T12:55:11;0.87;;;0.87;;
9280;SDS011;4679;47.966;7.958;2022-12-07T12:57:20;0.90;;;0.90;;
9280;SDS011;4679;47.966;7.958;2022-12-07T12:59:28;0.97;;;0.80;;
9280;SDS011;4679;47.966;7.958;2022-12-07T13:01:41;1.10;;;1.00;;
9280;SDS011;4679;47.966;7.958;2022-12-07T13:03:51;1.00;;;0.90;;
9280;SDS011;4679;47.966;7.958;2022-12-07T13:08:21;1.63;;;1.00;;
9280;SDS011;4679;47.966;7.958;2022-12-07T13:10:33;1.10;;;1.00;;
9280;SDS011;4679;47.966;7.958;2022-12-07T13:12:42;1.03;;;0.93;;
9280;SDS011;4679;47.966;7.958;2022-12-07T13:20:06;0.97;;;0.87;;
9280;SDS011;4679;47.966;7.958;2022-12-07T13:24:44;1.77;;;1.00;;
9280;SDS011;4679;47.966;7.958;2022-12-07T13:26:47;1.10;;;1.00;;
9280;SDS011;4679;47.966;7.958;2022-12-07T13:28:51;1.00;;;1.00;;
9280;SDS011;4679;47.966;7.958;2022-12-07T13:31:11;1.60;;;1.40;;
9280;SDS011;4679;47.966;7.958;2022-12-07T13:33:17;1.27;;;1.00;;
9280;SDS011;4679;47.966;7.958;2022-12-07T13:35:27;1.43;;;1.33;;
9280;SDS011;4679;47.966;7.958;2022-12-07T13:37:30;1.60;;;1.30;;
9280;SDS011;4679;47.966;7.958;2022-12-07T13:39:34;1.53;;;1.43;;
9280;SDS011;4679;47.966;7.958;2022-12-07T13:41:49;2.43;;;1.30;;
9280;SDS011;4679;47.966;7.958;2022-12-07T13:43:55;1.23;;;1.13;;
9280;SDS011;4679;47.966;7.958;2022-12-07T13:46:03;2.93;;;1.80;;
9280;SDS011;4679;47.966;7.958;2022-12-07T13:48:15;1.20;;;1.10;;
9280;SDS011;4679;47.966;7.958;2022-12-07T13:50:22;2.40;;;1.50;;
9280;SDS011;4679;47.966;7.958;2022-12-07T13:52:26;1.30;;;1.20;;
9280;SDS011;4679;47.966;7.958;2022-12-07T13:54:30;2.17;;;1.50;;
9280;SDS011;4679;47.966;7.958;2022-12-07T13:56:32;2.23;;;1.67;;
9280;SDS011;4679;47.966;7.958;2022-12-07T13:58:36;1.93;;;1.50;;
9280;SDS011;4679;47.966;7.958;2022-12-07T14:00:40;2.23;;;1.87;;
9280;SDS011;4679;47.966;7.958;2022-12-07T14:02:54;3.23;;;1.80;;
9280;SDS011;4679;47.966;7.958;2022-12-07T14:05:06;1.70;;;1.60;;
9280;SDS011;4679;47.966;7.958;2022-12-07T14:07:21;2.90;;;1.30;;
9280;SDS011;4679;47.966;7.958;2022-12-07T14:09:25;1.70;;;1.20;;
9280;SDS011;4679;47.966;7.958;2022-12-07T14:11:28;1.10;;;1.00;;
9280;SDS011;4679;47.966;7.958;2022-12-07T14:13:31;1.57;;;1.47;;
9280;SDS011;4679;47.966;7.958;2022-12-07T14:15:35;1.20;;;1.10;;
9280;SDS011;4679;47.966;7.958;2022-12-07T14:17:38;1.90;;;1.30;;
9280;SDS011;4679;47.966;7.958;2022-12-07T14:19:51;1.73;;;0.90;;
9280;SDS011;4679;47.966;7.958;2022-12-07T14:22:05;1.33;;;0.80;;
9280;SDS011;4679;47.966;7.958;2022-12-07T14:24:09;1.73;;;0.90;;
9280;SDS011;4679;47.966;7.958;2022-12-07T14:26:19;0.63;;;0.63;;
9280;SDS011;4679;47.966;7.958;2022-12-07T14:28:25;0.80;;;0.80;;
9280;SDS011;4679;47.966;7.958;2022-12-07T14:30:28;1.63;;;1.20;;
9280;SDS011;4679;47.966;7.958;2022-12-07T14:32:31;1.57;;;1.20;;
9280;SDS011;4679;47.966;7.958;2022-12-07T14:34:38;1.40;;;1.30;;
9280;SDS011;4679;47.966;7.958;2022-12-07T14:36:39;2.07;;;1.47;;
9280;SDS011;4679;47.966;7.958;2022-12-07T14:38:41;1.33;;;1.13;;
9280;SDS011;4679;47.966;7.958;2022-12-07T14:40:43;1.50;;;1.30;;
9280;SDS011;4679;47.966;7.958;2022-12-07T14:42:45;1.33;;;1.13;;
9280;SDS011;4679;47.966;7.958;2022-12-07T14:44:48;1.70;;;1.37;;
9280;SDS011;4679;47.966;7.958;2022-12-07T14:46:50;3.10;;;1.57;;
9280;SDS011;4679;47.966;7.958;2022-12-07T14:48:52;2.77;;;2.50;;
9280;SDS011;4679;47.966;7.958;2022-12-07T14:50:55;2.27;;;1.50;;
9280;SDS011;4679;47.966;7.958;2022-12-07T14:52:58;2.17;;;1.87;;
9280;SDS011;4679;47.966;7.958;2022-12-07T14:55:01;1.80;;;1.70;;
9280;SDS011;4679;47.966;7.958;2022-12-07T14:57:03;2.00;;;1.77;;
9280;SDS011;4679;47.966;7.958;2022-12-07T14:59:05;2.17;;;1.97;;
9280;SDS011;4679;47.966;7.958;2022-12-07T15:01:06;1.67;;;1.40;;
9280;SDS011;4679;47.966;7.958;2022-12-07T15:03:08;3.40;;;2.30;;
9280;SDS011;4679;47.966;7.958;2022-12-07T15:05:10;1.53;;;1.43;;
9280;SDS011;4679;47.966;7.958;2022-12-07T15:07:16;1.37;;;1.10;;
9280;SDS011;4679;47.966;7.958;2022-12-07T15:09:21;2.50;;;1.80;;
9280;SDS011;4679;47.966;7.958;2022-12-07T15:11:22;2.60;;;1.20;;
9280;SDS011;4679;47.966;7.958;2022-12-07T15:13:24;2.13;;;1.80;;
9280;SDS011;4679;47.966;7.958;2022-12-07T15:15:43;1.63;;;1.40;;
9280;SDS011;4679;47.966;7.958;2022-12-07T15:17:45;1.53;;;1.30;;
9280;SDS011;4679;47.966;7.958;2022-12-07T15:19:47;1.87;;;1.20;;
9280;SDS011;4679;47.966;7.958;2022-12-07T15:21:48;2.50;;;1.43;;
9280;SDS011;4679;47.966;7.958;2022-12-07T15:23:52;1.50;;;1.37;;
9280;SDS011;4679;47.966;7.958;2022-12-07T15:25:54;3.83;;;2.70;;
9280;SDS011;4679;47.966;7.958;2022-12-07T15:27:56;3.50;;;2.30;;
9280;SDS011;4679;47.966;7.958;2022-12-07T15:29:58;1.90;;;1.70;;
9280;SDS011;4679;47.966;7.958;2022-12-07T15:31:59;2.33;;;2.13;;
9280;SDS011;4679;47.966;7.958;2022-12-07T15:34:02;2.30;;;1.60;;
9280;SDS011;4679;47.966;7.958;2022-12-07T15:36:05;2.20;;;1.60;;
9280;SDS011;4679;47.966;7.958;2022-12-07T15:38:07;4.77;;;2.50;;
9280;SDS011;4679;47.966;7.958;2022-12-07T15:40:11;3.93;;;1.90;;
9280;SDS011;4679;47.966;7.958;2022-12-07T15:42:13;1.63;;;1.50;;
9280;SDS011;4679;47.966;7.958;2022-12-07T15:44:15;2.20;;;1.03;;
9280;SDS011;4679;47.966;7.958;2022-12-07T15:46:35;1.60;;;1.30;;
9280;SDS011;4679;47.966;7.958;2022-12-07T15:48:38;1.40;;;1.17;;
9280;SDS011;4679;47.966;7.958;2022-12-07T15:50:40;1.60;;;1.50;;
9280;SDS011;4679;47.966;7.958;2022-12-07T15:52:41;1.30;;;1.20;;
9280;SDS011;4679;47.966;7.958;2022-12-07T15:54:43;1.60;;;1.30;;
9280;SDS011;4679;47.966;7.958;2022-12-07T15:56:46;2.00;;;1.13;;
9280;SDS011;4679;47.966;7.958;2022-12-07T15:58:48;1.43;;;1.10;;
9280;SDS011;4679;47.966;7.958;2022-12-07T16:00:50;1.97;;;1.33;;
9280;SDS011;4679;47.966;7.958;2022-12-07T16:02:51;1.47;;;1.20;;
9280;SDS011;4679;47.966;7.958;2022-12-07T16:04:53;2.07;;;1.63;;
9280;SDS011;4679;47.966;7.958;2022-12-07T16:06:55;2.53;;;1.73;;
9280;SDS011;4679;47.966;7.958;2022-12-07T16:08:57;2.53;;;1.63;;
9280;SDS011;4679;47.966;7.958;2022-12-07T16:10:59;1.60;;;1.47;;
9280;SDS011;4679;47.966;7.958;2022-12-07T16:13:02;2.10;;;1.90;;
9280;SDS011;4679;47.966;7.958;2022-12-07T16:15:04;1.50;;;1.30;;
9280;SDS011;4679;47.966;7.958;2022-12-07T16:17:07;1.93;;;1.50;;
9280;SDS011;4679;47.966;7.958;2022-12-07T16:19:10;1.83;;;1.40;;
9280;SDS011;4679;47.966;7.958;2022-12-07T16:21:12;2.83;;;1.40;;
9280;SDS011;4679;47.966;7.958;2022-12-07T16:23:14;1.60;;;1.50;;
9280;SDS011;4679;47.966;7.958;2022-12-07T16:25:16;1.70;;;1.40;;
9280;SDS011;4679;47.966;7.958;2022-12-07T16:27:18;2.50;;;1.80;;
9280;SDS011;4679;47.966;7.958;2022-12-07T16:29:21;4.30;;;2.07;;
9280;SDS011;4679;47.966;7.958;2022-12-07T16:31:24;3.83;;;2.20;;
9280;SDS011;4679;47.966;7.958;2022-12-07T16:33:27;3.30;;;2.10;;
9280;SDS011;4679;47.966;7.958;2022-12-07T16:35:29;5.97;;;2.50;;
9280;SDS011;4679;47.966;7.958;2022-12-07T16:37:31;1.80;;;1.63;;
9280;SDS011;4679;47.966;7.958;2022-12-07T16:39:32;1.50;;;1.30;;
9280;SDS011;4679;47.966;7.958;2022-12-07T16:41:35;2.57;;;2.10;;
9280;SDS011;4679;47.966;7.958;2022-12-07T16:43:36;2.90;;;1.90;;
9280;SDS011;4679;47.966;7.958;2022-12-07T16:45:40;2.60;;;2.13;;
9280;SDS011;4679;47.966;7.958;2022-12-07T16:47:41;2.37;;;1.80;;
9280;SDS011;4679;47.966;7.958;2022-12-07T16:49:43;3.53;;;2.33;;
9280;SDS011;4679;47.966;7.958;2022-12-07T16:51:45;3.93;;;2.93;;
9280;SDS011;4679;47.966;7.958;2022-12-07T16:53:51;3.10;;;2.00;;
9280;SDS011;4679;47.966;7.958;2022-12-07T16:55:53;1.60;;;1.20;;
9280;SDS011;4679;47.966;7.958;2022-12-07T16:57:55;1.57;;;1.40;;
9280;SDS011;4679;47.966;7.958;2022-12-07T16:59:57;2.30;;;1.70;;
9280;SDS011;4679;47.966;7.958;2022-12-07T17:02:00;1.50;;;1.40;;
9280;SDS011;4679;47.966;7.958;2022-12-07T17:04:02;1.93;;;1.77;;
9280;SDS011;4679;47.966;7.958;2022-12-07T17:06:10;1.80;;;1.60;;
9280;SDS011;4679;47.966;7.958;2022-12-07T17:08:15;3.63;;;2.13;;
9280;SDS011;4679;47.966;7.958;2022-12-07T17:10:17;2.37;;;1.80;;
9280;SDS011;4679;47.966;7.958;2022-12-07T17:12:18;4.00;;;2.97;;
9280;SDS011;4679;47.966;7.958;2022-12-07T17:14:20;4.83;;;2.57;;
9280;SDS011;4679;47.966;7.958;2022-12-07T17:16:38;3.83;;;2.03;;
9280;SDS011;4679;47.966;7.958;2022-12-07T17:18:42;3.27;;;2.63;;
9280;SDS011;4679;47.966;7.958;2022-12-07T17:20:43;2.83;;;2.20;;
9280;SDS011;4679;47.966;7.958;2022-12-07T17:22:46;3.47;;;1.93;;
9280;SDS011;4679;47.966;7.958;2022-12-07T17:24:48;4.63;;;2.03;;
9280;SDS011;4679;47.966;7.958;2022-12-07T17:26:49;4.97;;;2.53;;
9280;SDS011;4679;47.966;7.958;2022-12-07T17:28:51;3.23;;;2.60;;
9280;SDS011;4679;47.966;7.958;2022-12-07T17:30:53;3.90;;;2.83;;
9280;SDS011;4679;47.966;7.958;2022-12-07T17:32:55;2.70;;;2.33;;
9280;SDS011;4679;47.966;7.958;2022-12-07T17:34:58;4.33;;;2.70;;
9280;SDS011;4679;47.966;7.958;2022-12-07T17:37:00;2.93;;;2.63;;
9280;SDS011;4679;47.966;7.958;2022-12-07T17:39:01;5.97;;;3.80;;
9280;SDS011;4679;47.966;7.958;2022-12-07T17:41:09;5.23;;;3.60;;
9280;SDS011;4679;47.966;7.958;2022-12-07T17:43:11;14.93;;;8.53;;
9280;SDS011;4679;47.966;7.958;2022-12-07T17:45:13;14.43;;;7.93;;
9280;SDS011;4679;47.966;7.958;2022-12-07T17:47:15;11.63;;;7.00;;
9280;SDS011;4679;47.966;7.958;2022-12-07T17:49:18;7.87;;;4.10;;
9280;SDS011;4679;47.966;7.958;2022-12-07T17:51:21;6.80;;;3.17;;
9280;SDS011;4679;47.966;7.958;2022-12-07T17:53:40;4.00;;;2.47;;
9280;SDS011;4679;47.966;7.958;2022-12-07T17:55:42;4.33;;;2.50;;
9280;SDS011;4679;47.966;7.958;2022-12-07T17:57:43;4.87;;;3.40;;
9280;SDS011;4679;47.966;7.958;2022-12-07T17:59:45;4.00;;;3.17;;
9280;SDS011;4679;47.966;7.958;2022-12-07T18:01:47;4.47;;;2.63;;
9280;SDS011;4679;47.966;7.958;2022-12-07T18:03:49;5.00;;;2.97;;
9280;SDS011;4679;47.966;7.958;2022-12-07T18:05:50;5.40;;;3.43;;
9280;SDS011;4679;47.966;7.958;2022-12-07T18:07:53;3.70;;;3.30;;
9280;SDS011;4679;47.966;7.958;2022-12-07T18:09:55;5.53;;;3.97;;
9280;SDS011;4679;47.966;7.958;2022-12-07T18:11:57;5.60;;;3.70;;
9280;SDS011;4679;47.966;7.958;2022-12-07T18:13:58;6.30;;;3.87;;
9280;SDS011;4679;47.966;7.958;2022-12-07T18:16:00;4.63;;;4.10;;
9280;SDS011;4679;47.966;7.958;2022-12-07T18:18:02;5.93;;;4.13;;
9280;SDS011;4679;47.966;7.958;2022-12-07T18:20:05;4.90;;;3.90;;
9280;SDS011;4679;47.966;7.958;2022-12-07T18:22:07;4.83;;;3.97;;
9280;SDS011;4679;47.966;7.958;2022-12-07T18:24:12;8.03;;;5.23;;
9280;SDS011;4679;47.966;7.958;2022-12-07T18:26:15;8.77;;;5.60;;
9280;SDS011;4679;47.966;7.958;2022-12-07T18:28:18;9.17;;;5.30;;
9280;SDS011;4679;47.966;7.958;2022-12-07T18:30:20;10.03;;;5.77;;
9280;SDS011;4679;47.966;7.958;2022-12-07T18:32:22;15.13;;;7.00;;
9280;SDS011;4679;47.966;7.958;2022-12-07T18:34:24;10.40;;;6.20;;
9280;SDS011;4679;47.966;7.958;2022-12-07T18:36:27;10.87;;;6.73;;
9280;SDS011;4679;47.966;7.958;2022-12-07T18:38:29;10.50;;;6.63;;
9280;SDS011;4679;47.966;7.958;2022-12-07T18:40:33;17.10;;;11.77;;
9280;SDS011;4679;47.966;7.958;2022-12-07T18:42:37;13.43;;;9.00;;
9280;SDS011;4679;47.966;7.958;2022-12-07T18:44:39;20.00;;;12.30;;
9280;SDS011;4679;47.966;7.958;2022-12-07T18:46:41;13.00;;;8.73;;
9280;SDS011;4679;47.966;7.958;2022-12-07T18:48:43;21.73;;;12.17;;
9280;SDS011;4679;47.966;7.958;2022-12-07T18:50:45;9.00;;;7.47;;
9280;SDS011;4679;47.966;7.958;2022-12-07T18:52:48;10.10;;;6.37;;
9280;SDS011;4679;47.966;7.958;2022-12-07T18:54:50;11.70;;;7.00;;
9280;SDS011;4679;47.966;7.958;2022-12-07T18:56:53;7.97;;;6.13;;
9280;SDS011;4679;47.966;7.958;2022-12-07T18:58:56;10.40;;;5.70;;
9280;SDS011;4679;47.966;7.958;2022-12-07T19:01:17;12.83;;;7.23;;
9280;SDS011;4679;47.966;7.958;2022-12-07T19:03:18;5.90;;;4.30;;
9280;SDS011;4679;47.966;7.958;2022-12-07T19:05:20;9.07;;;4.90;;
9280;SDS011;4679;47.966;7.958;2022-12-07T19:07:23;8.20;;;5.23;;
9280;SDS011;4679;47.966;7.958;2022-12-07T19:09:25;5.70;;;4.23;;
9280;SDS011;4679;47.966;7.958;2022-12-07T19:11:27;7.40;;;5.07;;
9280;SDS011;4679;47.966;7.958;2022-12-07T19:13:48;4.83;;;3.50;;
9280;SDS011;4679;47.966;7.958;2022-12-07T19:15:50;7.07;;;4.50;;
9280;SDS011;4679;47.966;7.958;2022-12-07T19:17:52;6.93;;;5.30;;
9280;SDS011;4679;47.966;7.958;2022-12-07T19:19:53;7.27;;;4.37;;
9280;SDS011;4679;47.966;7.958;2022-12-07T19:21:55;5.53;;;4.30;;
9280;SDS011;4679;47.966;7.958;2022-12-07T19:23:57;5.40;;;4.40;;
9280;SDS011;4679;47.966;7.958;2022-12-07T19:25:59;5.63;;;4.37;;
9280;SDS011;4679;47.966;7.958;2022-12-07T19:28:01;4.73;;;3.67;;
9280;SDS011;4679;47.966;7.958;2022-12-07T19:30:04;7.80;;;3.67;;
9280;SDS011;4679;47.966;7.958;2022-12-07T19:32:09;4.73;;;3.67;;
9280;SDS011;4679;47.966;7.958;2022-12-07T19:34:12;5.30;;;3.60;;
9280;SDS011;4679;47.966;7.958;2022-12-07T19:36:16;10.83;;;5.53;;
9280;SDS011;4679;47.966;7.958;2022-12-07T19:38:17;13.37;;;7.13;;
9280;SDS011;4679;47.966;7.958;2022-12-07T19:40:19;21.27;;;9.60;;
9280;SDS011;4679;47.966;7.958;2022-12-07T19:42:21;16.93;;;9.37;;
9280;SDS011;4679;47.966;7.958;2022-12-07T19:44:23;7.03;;;4.53;;
9280;SDS011;4679;47.966;7.958;2022-12-07T19:46:28;5.93;;;4.90;;
9280;SDS011;4679;47.966;7.958;2022-12-07T19:48:30;9.37;;;7.13;;
9280;SDS011;4679;47.966;7.958;2022-12-07T19:50:32;9.70;;;6.57;;
9280;SDS011;4679;47.966;7.958;2022-12-07T19:52:34;7.87;;;4.30;;
9280;SDS011;4679;47.966;7.958;2022-12-07T19:54:35;4.37;;;3.40;;
9280;SDS011;4679;47.966;7.958;2022-12-07T19:56:38;3.93;;;3.13;;
9280;SDS011;4679;47.966;7.958;2022-12-07T19:58:40;5.63;;;3.73;;
9280;SDS011;4679;47.966;7.958;2022-12-07T20:00:42;4.70;;;3.47;;
9280;SDS011;4679;47.966;7.958;2022-12-07T20:02:45;4.87;;;2.73;;
9280;SDS011;4679;47.966;7.958;2022-12-07T20:04:46;4.20;;;3.30;;
9280;SDS011;4679;47.966;7.958;2022-12-07T20:06:48;4.73;;;2.73;;